Pagina principale
METAR-TAF:

METAR-TAF

Aeroporti :

Aeroporto di Timișoara-Traian Vuia

Timişoara, Romania

latitudine: 45-46N, longitudine: 021-15E, altezza: 86 m

Osservazione

Il bollettino è stato emesso 27 minuti fa, alle 14:30 UTC
Vento 3 kt da direzioni variabili
Temperature 30°C
Umidità 31%
Pressione 1015 hPa
Visibilità 10 km o più
nessuna nube inferiore a 1500 m e nessun cumulonembo

METAR: LRTR 171430Z VRB03KT CAVOK 30/11 Q1015 NOSIG

Ora: 17:57 (14:57 UTC)

Previsione

Il bollettino è stato emesso 3 ore e 57 minuti fa, alle 11:00 UTC
Previsione valida dal 17 alle 12 UTC al 18 alle 12 UTC
Vento 6 kt da nord/nord-ovest
Visibilità 10 km o più
nessuna nube inferiore a 1500 m e nessun cumulonembo
Probabilità 30% :
Temporaneamente
dal 18 alle 01 UTC al 18 alle 05 UTC
Visibilità: 5000 m
foschia,

TAF: LRTR 171100Z 1712/1812 34006KT CAVOK PROB30 TEMPO 1801/1805 5000 BR

Osservazioni e previsioni meteorologiche di più di 4000 aeroporti (messaggi METAR e TAF).

Le stazioni disponibili sono rappresentate dai dischi gialli e rossi sulla carta.

Puntare il mouse per vedere il nome della stazione.

Clicca sopra per visualizzare le osservazioni e previsioni meteorologiche.

Per cambiare la mappa : fare clic sui pulsanti verdi con una croce nera per ingrandire, il pulsante verde con un trattino per diminuire, o sulla freccia verde per le mappe adiacenti.


METAR-TAF: